createdAt,value
2023-01-07T00:00:28.502Z,98989.84
2023-01-07T00:02:59.722Z,98992.50
2023-01-07T00:05:29.300Z,98997.91
2023-01-07T00:07:59.718Z,98994.44
2023-01-07T00:10:28.653Z,98993.63
2023-01-07T00:12:57.264Z,98993.16
2023-01-07T00:15:25.634Z,98984.41
2023-01-07T00:17:54.664Z,98980.16
2023-01-07T00:20:24.455Z,98990.41
2023-01-07T00:22:53.429Z,99019.22
2023-01-07T00:25:22.040Z,99008.13
2023-01-07T00:27:50.833Z,99010.31
2023-01-07T00:30:19.601Z,99022.59
2023-01-07T00:33:04.681Z,99020.28
2023-01-07T00:35:37.321Z,99026.25
2023-01-07T00:38:06.765Z,99041.47
2023-01-07T00:40:35.408Z,99021.19
2023-01-07T00:43:07.218Z,99014.00
2023-01-07T00:45:38.355Z,99023.38
2023-01-07T00:48:08.301Z,99012.03
2023-01-07T00:50:40.111Z,99011.09
2023-01-07T00:53:08.794Z,99025.19
2023-01-07T00:55:40.157Z,98995.59
2023-01-07T00:58:08.843Z,98998.06
2023-01-07T01:00:37.534Z,99000.84
2023-01-07T01:03:06.094Z,99002.50
2023-01-07T01:05:34.717Z,98998.06
2023-01-07T01:08:08.056Z,98992.16
2023-01-07T01:10:39.933Z,98991.44
2023-01-07T01:13:11.649Z,98990.63
2023-01-07T01:15:44.021Z,98988.97
2023-01-07T01:18:13.283Z,98984.53
2023-01-07T01:20:42.191Z,98984.38
2023-01-07T01:23:12.281Z,98980.66
2023-01-07T01:25:43.019Z,98975.41
2023-01-07T01:28:11.619Z,98969.03
2023-01-07T01:30:41.014Z,98963.63
2023-01-07T01:33:09.545Z,98970.97
2023-01-07T01:35:42.595Z,98975.41
2023-01-07T01:38:13.635Z,98970.72
2023-01-07T01:40:42.247Z,98972.38
2023-01-07T01:43:31.110Z,98973.19
2023-01-07T01:46:02.407Z,98971.25
2023-01-07T01:48:35.900Z,98960.72
2023-01-07T01:51:05.340Z,98956.44
2023-01-07T01:53:37.560Z,98961.59
2023-01-07T01:56:12.372Z,98960.72
2023-01-07T01:58:44.710Z,98956.34
2023-01-07T02:01:14.413Z,98956.34
2023-01-07T02:03:46.594Z,98949.41
2023-01-07T02:06:22.872Z,98942.34
2023-01-07T02:08:53.487Z,98937.22
2023-01-07T02:11:36.589Z,98935.16
2023-01-07T02:14:21.771Z,98945.66
2023-01-07T02:16:56.769Z,98938.47
2023-01-07T02:20:02.455Z,98937.63
2023-01-07T02:22:48.691Z,98935.00
2023-01-07T02:25:42.249Z,98936.97
2023-01-07T02:28:36.678Z,98931.31
2023-01-07T02:31:28.100Z,98939.72
2023-01-07T02:34:06.113Z,98923.94
2023-01-07T02:36:48.788Z,98922.03
2023-01-07T02:39:37.379Z,98913.44
2023-01-07T02:42:15.464Z,98904.72
2023-01-07T02:44:47.709Z,98907.34
2023-01-07T02:47:21.666Z,98902.69
2023-01-07T02:49:51.763Z,98903.50
2023-01-07T02:52:23.702Z,98903.06
2023-01-07T02:54:57.745Z,98910.13
2023-01-07T02:58:00.386Z,98908.59
2023-01-07T03:01:12.740Z,98897.84
2023-01-07T03:03:57.037Z,98909.03
2023-01-07T03:06:42.117Z,98890.53
2023-01-07T03:09:17.983Z,98886.25
2023-01-07T03:11:54.487Z,98866.88
2023-01-07T03:14:31.039Z,98866.06
2023-01-07T03:17:05.130Z,98859.97
2023-01-07T03:19:36.431Z,98849.47
2023-01-07T03:22:10.301Z,98845.03
2023-01-07T03:24:40.133Z,98838.25
2023-01-07T03:27:10.919Z,98851.78
2023-01-07T03:29:39.614Z,98854.56
2023-01-07T03:32:15.005Z,98858.16
2023-01-07T03:34:44.878Z,98852.91
2023-01-07T03:37:18.527Z,98835.34
2023-01-07T03:39:48.944Z,98838.53
2023-01-07T03:42:49.312Z,98830.53
2023-01-07T03:45:20.572Z,98823.63
2023-01-07T03:47:51.381Z,98820.13
2023-01-07T03:50:22.171Z,98820.03
2023-01-07T03:52:52.259Z,98813.13
2023-01-07T03:55:20.980Z,98795.56
2023-01-07T03:57:49.763Z,98795.41
2023-01-07T04:00:19.101Z,98787.38
2023-01-07T04:02:47.794Z,98779.63
2023-01-07T04:05:16.624Z,98762.22
2023-01-07T04:07:45.301Z,98759.44
2023-01-07T04:10:15.473Z,98761.25
2023-01-07T04:12:45.156Z,98758.34
2023-01-07T04:15:19.857Z,98748.28
2023-01-07T04:17:48.482Z,98748.28
2023-01-07T04:20:18.178Z,98738.88
2023-01-07T04:22:46.674Z,98742.63
2023-01-07T04:25:16.641Z,98734.19
2023-01-07T04:27:45.133Z,98725.19
2023-01-07T04:30:14.560Z,98725.50
2023-01-07T04:32:42.997Z,98721.06
2023-01-07T04:35:11.718Z,98716.63
2023-01-07T04:37:40.267Z,98716.63
2023-01-07T04:40:10.813Z,98701.84
2023-01-07T04:42:40.902Z,98698.25
2023-01-07T04:45:10.516Z,98696.72
2023-01-07T04:47:39.940Z,98694.94
2023-01-07T04:50:09.740Z,98700.50
2023-01-07T04:52:39.584Z,98686.53
2023-01-07T04:55:11.416Z,98689.00
2023-01-07T04:57:42.203Z,98679.31
2023-01-07T05:00:12.506Z,98682.94
2023-01-07T05:02:41.364Z,98672.00
2023-01-07T05:05:10.996Z,98678.44
2023-01-07T05:07:39.598Z,98667.13
2023-01-07T05:10:09.172Z,98670.28
2023-01-07T05:12:38.393Z,98661.25
2023-01-07T05:15:10.259Z,98655.06
2023-01-07T05:17:38.929Z,98657.69
2023-01-07T05:20:10.284Z,98647.31
2023-01-07T05:22:38.853Z,98634.03
2023-01-07T05:25:08.159Z,98641.50
2023-01-07T05:27:36.721Z,98632.75
2023-01-07T05:30:05.657Z,98632.91
2023-01-07T05:32:40.104Z,98615.34
2023-01-07T05:35:10.128Z,98627.38
2023-01-07T05:37:38.807Z,98619.31
2023-01-07T05:40:09.009Z,98615.22
2023-01-07T05:42:38.847Z,98616.69
2023-01-07T05:45:09.074Z,98616.97
2023-01-07T05:47:37.473Z,98614.34
2023-01-07T05:50:09.244Z,98620.75
2023-01-07T05:52:37.643Z,98617.50
2023-01-07T05:55:07.337Z,98602.53
2023-01-07T05:57:36.099Z,98599.38
2023-01-07T06:00:05.994Z,98588.16
2023-01-07T06:02:52.673Z,98591.59
2023-01-07T06:05:23.001Z,98595.53
2023-01-07T06:07:51.495Z,98587.25
2023-01-07T06:10:20.061Z,98593.34
2023-01-07T06:12:51.485Z,98581.88
2023-01-07T06:15:21.398Z,98582.00
2023-01-07T06:17:50.933Z,98571.66
2023-01-07T06:20:19.383Z,98549.16
2023-01-07T06:22:49.508Z,98542.22
2023-01-07T06:25:19.790Z,98535.50
2023-01-07T06:27:48.425Z,98528.59
2023-01-07T06:30:16.954Z,98531.66
2023-01-07T06:32:46.097Z,98530.16
2023-01-07T06:35:16.812Z,98519.81
2023-01-07T06:37:45.462Z,98521.09
2023-01-07T06:40:15.622Z,98521.75
2023-01-07T06:42:44.367Z,98515.84
2023-01-07T06:45:14.191Z,98516.66
2023-01-07T06:47:42.938Z,98525.97
2023-01-07T06:50:12.113Z,98522.78
2023-01-07T06:52:41.338Z,98528.22
2023-01-07T06:55:11.048Z,98529.59
2023-01-07T06:57:40.815Z,98519.69
2023-01-07T07:00:10.851Z,98520.16
2023-01-07T07:02:39.690Z,98516.84
2023-01-07T07:05:09.057Z,98523.50
2023-01-07T07:07:37.507Z,98514.41
2023-01-07T07:10:10.412Z,98519.28
2023-01-07T07:12:41.115Z,98512.00
2023-01-07T07:15:11.477Z,98511.63
2023-01-07T07:17:39.919Z,98511.91
2023-01-07T07:20:09.592Z,98506.13
2023-01-07T07:22:38.149Z,98498.03
2023-01-07T07:25:07.395Z,98503.53
2023-01-07T07:27:35.988Z,98513.22
2023-01-07T07:30:08.321Z,98523.41
2023-01-07T07:32:37.929Z,98512.50
2023-01-07T07:35:07.322Z,98514.75
2023-01-07T07:37:38.300Z,98518.88
2023-01-07T07:40:08.640Z,98520.41
2023-01-07T07:43:10.808Z,98520.16
2023-01-07T07:45:30.552Z,98520.16
2023-01-07T07:47:59.212Z,98512.13
2023-01-07T07:50:28.005Z,98515.56
2023-01-07T07:52:58.234Z,98505.06
2023-01-07T07:55:29.735Z,98508.00
2023-01-07T07:57:59.902Z,98504.03
2023-01-07T08:00:31.529Z,98507.34
2023-01-07T08:03:00.549Z,98501.28
2023-01-07T08:05:30.972Z,98499.53
2023-01-07T08:08:00.161Z,98505.03
2023-01-07T08:10:31.446Z,98497.59
2023-01-07T08:13:01.276Z,98501.34
2023-01-07T08:15:32.706Z,98498.75
2023-01-07T08:18:09.710Z,98498.19
2023-01-07T08:20:39.041Z,98502.34
2023-01-07T08:23:09.656Z,98493.09
2023-01-07T08:25:42.520Z,98486.59
2023-01-07T08:28:12.191Z,98487.31
2023-01-07T08:30:44.943Z,98480.53
2023-01-07T08:33:13.820Z,98476.00
2023-01-07T08:35:43.743Z,98478.88
2023-01-07T08:38:12.611Z,98476.78
2023-01-07T08:40:47.404Z,98467.56
2023-01-07T08:43:15.878Z,98469.13
2023-01-07T08:45:53.888Z,98473.63
2023-01-07T08:48:23.003Z,98465.38
2023-01-07T08:50:56.746Z,98470.78
2023-01-07T08:53:27.787Z,98464.97
2023-01-07T08:55:58.719Z,98461.78
2023-01-07T08:58:28.260Z,98448.84
2023-01-07T09:01:04.286Z,98443.47
2023-01-07T09:03:33.111Z,98448.16
2023-01-07T09:06:04.225Z,98432.88
2023-01-07T09:08:33.135Z,98434.53
2023-01-07T09:11:02.015Z,98433.28
2023-01-07T09:13:30.600Z,98433.53
2023-01-07T09:16:01.171Z,98437.53
2023-01-07T09:18:31.474Z,98432.69
2023-01-07T09:21:04.432Z,98421.22
2023-01-07T09:23:34.468Z,98421.22
2023-01-07T09:26:03.725Z,98417.56
2023-01-07T09:28:38.321Z,98419.34
2023-01-07T09:31:15.498Z,98397.66
2023-01-07T09:33:49.181Z,98401.06
2023-01-07T09:36:24.862Z,98390.16
2023-01-07T09:38:57.084Z,98376.34
2023-01-07T09:41:35.142Z,98375.31
2023-01-07T09:44:14.538Z,98358.84
2023-01-07T09:46:46.149Z,98345.84
2023-01-07T09:49:19.800Z,98355.34
2023-01-07T09:52:00.108Z,98342.06
2023-01-07T09:54:34.523Z,98340.34
2023-01-07T09:57:03.766Z,98328.16
2023-01-07T09:59:33.783Z,98343.81
2023-01-07T10:02:19.284Z,98322.38
2023-01-07T10:04:59.232Z,98322.34
2023-01-07T10:07:36.379Z,98318.50
2023-01-07T10:10:23.288Z,98322.31
2023-01-07T10:13:00.826Z,98325.66
2023-01-07T10:15:57.569Z,98323.91
2023-01-07T10:18:46.030Z,98315.63
2023-01-07T10:21:30.289Z,98309.91
2023-01-07T10:24:05.736Z,98316.66
2023-01-07T10:26:38.723Z,98317.66
2023-01-07T10:29:13.949Z,98320.03
2023-01-07T10:31:46.101Z,98320.22
2023-01-07T10:34:30.775Z,98321.91
2023-01-07T10:37:04.784Z,98322.28
2023-01-07T10:39:50.955Z,98313.59
2023-01-07T10:42:27.775Z,98321.19
2023-01-07T10:45:19.405Z,98311.66
2023-01-07T10:48:30.195Z,98314.13
2023-01-07T10:51:19.238Z,98300.63
2023-01-07T10:54:04.468Z,98258.41
2023-01-07T10:56:44.869Z,98237.34
2023-01-07T10:59:21.474Z,98220.91
2023-01-07T11:01:54.846Z,98229.63
2023-01-07T11:04:25.617Z,98185.28
2023-01-07T11:06:59.104Z,98217.47
2023-01-07T11:09:34.356Z,98222.44
2023-01-07T11:12:19.453Z,98217.50
2023-01-07T11:14:53.123Z,98198.44
2023-01-07T11:17:33.317Z,98180.53
2023-01-07T11:20:02.949Z,98171.94
2023-01-07T11:22:45.734Z,98159.53
2023-01-07T11:25:34.031Z,98172.03
2023-01-07T11:28:05.264Z,98144.03
2023-01-07T11:30:39.644Z,98144.00
2023-01-07T11:33:23.858Z,98169.38
2023-01-07T11:36:42.410Z,98159.22
2023-01-07T11:39:13.693Z,98160.25
2023-01-07T11:41:56.979Z,98164.06
2023-01-07T11:44:32.046Z,98183.47
2023-01-07T11:47:17.602Z,98158.97
2023-01-07T11:49:54.865Z,98168.13
2023-01-07T11:52:25.119Z,98175.31
2023-01-07T11:55:00.299Z,98165.13
2023-01-07T11:57:31.739Z,98150.66
2023-01-07T12:00:16.610Z,98131.47
2023-01-07T12:02:47.782Z,98139.88
2023-01-07T12:05:23.668Z,98153.34
2023-01-07T12:08:00.588Z,98143.81
2023-01-07T12:10:37.243Z,98140.84
2023-01-07T12:13:28.310Z,98118.78
2023-01-07T12:16:02.259Z,98130.97
2023-01-07T12:19:07.535Z,98133.91
2023-01-07T12:21:52.304Z,98135.41
2023-01-07T12:24:53.239Z,98111.84
2023-01-07T12:27:38.342Z,98118.06
2023-01-07T12:30:27.166Z,98100.25
2023-01-07T12:33:11.470Z,98110.16
2023-01-07T12:35:47.398Z,98104.66
2023-01-07T12:38:27.426Z,98097.91
2023-01-07T12:41:02.862Z,98112.28
2023-01-07T12:43:51.292Z,98087.06
2023-01-07T12:46:27.518Z,98066.56
2023-01-07T12:49:05.453Z,98055.03
2023-01-07T12:51:45.921Z,98040.81
2023-01-07T12:54:32.455Z,98038.66
2023-01-07T12:57:12.613Z,98012.84
2023-01-07T12:59:48.114Z,98031.00
2023-01-07T13:02:51.761Z,98021.56
2023-01-07T13:05:28.304Z,98001.59
2023-01-07T13:08:04.510Z,97992.63
2023-01-07T13:10:41.259Z,98006.41
2023-01-07T13:13:18.115Z,97983.00
2023-01-07T13:15:50.703Z,97975.56
2023-01-07T13:18:40.753Z,97982.81
2023-01-07T13:21:20.834Z,97991.38
2023-01-07T13:24:19.032Z,97984.72
2023-01-07T13:26:56.673Z,97976.97
2023-01-07T13:29:52.381Z,97959.81
2023-01-07T13:33:01.464Z,97957.06
2023-01-07T13:35:51.306Z,97949.34
2023-01-07T13:39:00.460Z,97951.63
2023-01-07T13:41:51.111Z,97943.81
2023-01-07T13:44:52.172Z,97934.81
2023-01-07T13:47:23.473Z,97926.03
2023-01-07T13:49:58.251Z,97934.81
2023-01-07T13:52:33.552Z,97919.75
2023-01-07T13:55:35.456Z,97931.91
2023-01-07T13:58:04.500Z,97914.22
2023-01-07T14:00:48.429Z,97914.66
2023-01-07T14:03:34.869Z,97903.13
2023-01-07T14:09:45.658Z,97919.38
2023-01-07T14:12:38.709Z,97889.84
2023-01-07T14:19:08.528Z,97875.47
2023-01-07T14:22:03.654Z,97893.91
2023-01-07T14:24:54.573Z,97876.41
2023-01-07T14:28:01.037Z,97862.84
2023-01-07T14:30:47.911Z,97886.16
2023-01-07T14:33:53.522Z,97856.09
2023-01-07T14:44:30.605Z,97851.31
2023-01-07T14:46:59.288Z,97860.44
2023-01-07T14:49:54.275Z,97854.91
2023-01-07T14:52:47.185Z,97850.59
2023-01-07T14:56:00.919Z,97840.28
2023-01-07T14:58:49.742Z,97831.59
2023-01-07T15:01:36.379Z,97835.28
2023-01-07T15:04:54.668Z,97833.56
2023-01-07T15:07:35.233Z,97822.53
2023-01-07T15:10:37.125Z,97813.47
2023-01-07T15:13:26.462Z,97800.56
2023-01-07T15:16:06.723Z,97813.03
2023-01-07T15:18:47.696Z,97788.16
2023-01-07T15:21:30.457Z,97791.25
2023-01-07T15:24:09.144Z,97794.06
2023-01-07T15:26:47.200Z,97801.31
2023-01-07T15:29:24.490Z,97797.69
2023-01-07T15:32:01.004Z,97783.22
2023-01-07T15:34:34.532Z,97785.97
2023-01-07T15:37:06.784Z,97757.72
2023-01-07T15:39:40.991Z,97753.31
2023-01-07T15:42:17.445Z,97757.09
2023-01-07T15:44:49.939Z,97775.56
2023-01-07T15:47:39.658Z,97767.06
2023-01-07T15:50:30.802Z,97773.78
2023-01-07T15:53:01.487Z,97803.22
2023-01-07T15:55:35.180Z,97759.63
2023-01-07T15:58:07.446Z,97737.31
2023-01-07T16:00:40.178Z,97777.44
2023-01-07T16:03:10.495Z,97777.78
2023-01-07T16:05:40.721Z,97761.03
2023-01-07T16:08:19.083Z,97744.91
2023-01-07T16:11:00.937Z,97742.66
2023-01-07T16:13:30.358Z,97741.69
2023-01-07T16:16:03.607Z,97734.28
2023-01-07T16:18:34.279Z,97751.56
2023-01-07T16:21:09.392Z,97730.38
2023-01-07T16:23:40.592Z,97743.84
2023-01-07T16:26:11.577Z,97713.88
2023-01-07T16:28:43.557Z,97741.50
2023-01-07T16:31:21.923Z,97758.97
2023-01-07T16:33:54.391Z,97768.50
2023-01-07T16:36:28.493Z,97732.03
2023-01-07T16:39:00.374Z,97753.56
2023-01-07T16:41:31.299Z,97762.13
2023-01-07T16:44:08.374Z,97745.75
2023-01-07T16:46:43.163Z,97770.75
2023-01-07T16:49:31.281Z,97764.19
2023-01-07T16:52:14.247Z,97709.31
2023-01-07T16:54:45.718Z,97753.31
2023-01-07T16:57:31.564Z,97764.81
2023-01-07T17:00:06.428Z,97753.50
2023-01-07T17:02:41.041Z,97761.03
2023-01-07T17:05:18.737Z,97758.13
2023-01-07T17:07:54.058Z,97760.25
2023-01-07T17:10:32.392Z,97761.06
2023-01-07T17:13:03.798Z,97762.03
2023-01-07T17:15:39.643Z,97788.97
2023-01-07T17:18:33.077Z,97792.72
2023-01-07T17:21:02.731Z,97799.16
2023-01-07T17:23:45.907Z,97811.13
2023-01-07T17:26:21.389Z,97827.25
2023-01-07T17:28:54.024Z,97891.19
2023-01-07T17:31:23.878Z,97868.88
2023-01-07T17:33:53.479Z,97832.94
2023-01-07T17:36:24.720Z,97858.81
2023-01-07T17:38:55.521Z,97865.03
2023-01-07T17:41:42.589Z,97864.88
2023-01-07T17:44:14.667Z,97873.06
2023-01-07T17:46:44.613Z,97866.00
2023-01-07T17:49:14.157Z,97882.25
2023-01-07T17:51:45.217Z,97873.56
2023-01-07T17:54:21.585Z,97863.09
2023-01-07T17:56:50.867Z,97880.00
2023-01-07T17:59:23.036Z,97868.34
2023-01-07T18:01:55.512Z,97882.31
2023-01-07T18:04:24.246Z,97871.66
2023-01-07T18:06:52.633Z,97878.06
2023-01-07T18:09:22.965Z,97854.59
2023-01-07T18:12:08.767Z,97852.81
2023-01-07T18:14:37.166Z,97847.06
2023-01-07T18:17:07.538Z,97854.94
2023-01-07T18:19:35.905Z,97848.38
2023-01-07T18:22:04.337Z,97850.50
2023-01-07T18:24:35.061Z,97845.94
2023-01-07T18:27:03.489Z,97840.69
2023-01-07T18:29:32.330Z,97842.31
2023-01-07T18:32:00.924Z,97831.63
2023-01-07T18:34:29.878Z,97831.81
2023-01-07T18:36:58.832Z,97829.88
2023-01-07T18:39:27.819Z,97828.53
2023-01-07T18:41:57.820Z,97823.63
2023-01-07T18:44:26.891Z,97816.56
2023-01-07T18:46:55.283Z,97820.50
2023-01-07T18:49:23.907Z,97830.03
2023-01-07T18:51:52.567Z,97822.78
2023-01-07T18:54:21.778Z,97830.03
2023-01-07T18:56:50.637Z,97826.41
2023-01-07T18:59:20.994Z,97825.56
2023-01-07T19:01:49.680Z,97839.53
2023-01-07T19:04:18.478Z,97828.34
2023-01-07T19:06:47.260Z,97829.97
2023-01-07T19:09:15.861Z,97830.81
2023-01-07T19:11:44.148Z,97831.47
2023-01-07T19:14:12.700Z,97827.53
2023-01-07T19:16:42.828Z,97817.34
2023-01-07T19:19:11.835Z,97831.78
2023-01-07T19:21:40.362Z,97841.28
2023-01-07T19:24:09.245Z,97846.03
2023-01-07T19:26:37.780Z,97834.06
2023-01-07T19:29:06.140Z,97845.06
2023-01-07T19:31:34.541Z,97836.53
2023-01-07T19:34:05.257Z,97864.41
2023-01-07T19:36:34.044Z,97857.69
2023-01-07T19:39:02.504Z,97854.72
2023-01-07T19:41:33.278Z,97857.66
2023-01-07T19:47:44.231Z,97828.25
2023-01-07T19:51:04.013Z,97829.56
2023-01-07T19:54:21.847Z,97855.16
2023-01-07T19:57:02.903Z,97847.59
2023-01-07T20:03:18.263Z,97849.72
2023-01-07T20:09:27.411Z,97851.88
2023-01-07T20:15:49.491Z,97878.97
2023-01-07T20:19:13.994Z,97865.97
2023-01-07T20:21:59.842Z,97884.53
2023-01-07T20:24:37.516Z,97850.72
2023-01-07T20:27:16.857Z,97862.03
2023-01-07T20:29:53.838Z,97865.97
2023-01-07T20:32:31.370Z,97859.22
2023-01-07T20:35:47.741Z,97860.88
2023-01-07T20:38:57.905Z,97853.13
2023-01-07T20:41:31.724Z,97856.13
2023-01-07T20:44:36.053Z,97894.84
2023-01-07T20:47:06.036Z,97867.94
2023-01-07T20:49:41.277Z,97861.84
2023-01-07T20:52:16.103Z,97864.63
2023-01-07T20:55:07.023Z,97880.09
2023-01-07T20:57:35.878Z,97868.56
2023-01-07T21:00:08.788Z,97869.56
2023-01-07T21:02:43.773Z,97856.25
2023-01-07T21:05:24.894Z,97853.28
2023-01-07T21:07:56.125Z,97852.66
2023-01-07T21:11:36.821Z,97851.00
2023-01-07T21:14:28.159Z,97856.56
2023-01-07T21:17:00.189Z,97861.19
2023-01-07T21:19:33.729Z,97853.59
2023-01-07T21:22:05.430Z,97847.84
2023-01-07T21:24:38.136Z,97825.16
2023-01-07T21:27:07.868Z,97859.34
2023-01-07T21:29:51.316Z,97888.25
2023-01-07T21:32:22.115Z,97869.38
2023-01-07T21:34:52.942Z,97876.25
2023-01-07T21:37:29.202Z,97873.28
2023-01-07T21:39:59.105Z,97878.69
2023-01-07T21:42:28.537Z,97881.03
2023-01-07T21:44:58.264Z,97895.47
2023-01-07T21:47:33.083Z,97896.94
2023-01-07T21:50:03.778Z,97891.69
2023-01-07T21:52:39.995Z,97909.59
2023-01-07T21:55:10.470Z,97927.81
2023-01-07T21:57:48.402Z,97913.88
2023-01-07T22:00:17.940Z,97916.19
2023-01-07T22:02:48.092Z,97979.59
2023-01-07T22:05:19.725Z,97922.63
2023-01-07T22:07:50.026Z,97931.00
2023-01-07T22:10:19.841Z,97905.06
2023-01-07T22:12:50.533Z,97933.63
2023-01-07T22:15:19.860Z,97918.50
2023-01-07T22:17:58.447Z,97931.81
2023-01-07T22:20:31.105Z,97940.34
2023-01-07T22:23:07.463Z,97958.25
2023-01-07T22:25:37.564Z,97942.66
2023-01-07T22:28:08.492Z,97962.34
2023-01-07T22:30:54.898Z,97946.09
2023-01-07T22:33:35.525Z,97930.66
2023-01-07T22:36:06.237Z,97943.97
2023-01-07T22:38:37.386Z,97962.38
2023-01-07T22:41:09.788Z,97952.50
2023-01-07T22:44:08.546Z,97957.59
2023-01-07T22:46:48.212Z,97949.72
2023-01-07T22:49:18.091Z,97932.63
2023-01-07T22:52:02.194Z,97929.03
2023-01-07T22:54:34.767Z,97961.22
2023-01-07T22:57:07.224Z,97948.41
2023-01-07T22:59:38.305Z,97944.16
2023-01-07T23:02:17.702Z,97943.16
2023-01-07T23:04:48.326Z,97957.31
2023-01-07T23:07:23.151Z,97943.34
2023-01-07T23:09:53.374Z,97944.66
2023-01-07T23:12:25.053Z,97970.28
2023-01-07T23:14:58.000Z,97974.53
2023-01-07T23:17:32.591Z,97978.66
2023-01-07T23:20:09.831Z,97974.53
2023-01-07T23:22:44.952Z,97974.53
2023-01-07T23:25:19.880Z,97955.03
2023-01-07T23:27:56.454Z,97995.22
2023-01-07T23:30:25.593Z,97971.09
2023-01-07T23:33:08.313Z,97993.59
2023-01-07T23:35:38.847Z,97965.69
2023-01-07T23:38:21.056Z,97978.31
2023-01-07T23:41:07.548Z,98023.63
2023-01-07T23:43:37.836Z,97965.84
2023-01-07T23:46:20.736Z,97970.28
2023-01-07T23:49:05.867Z,97997.03
2023-01-07T23:51:54.457Z,97980.13
2023-01-07T23:54:24.539Z,98003.78
2023-01-07T23:57:35.345Z,97998.00
